Time;durP1;ratioP1;P1;durP2;ratioP2;P2;SDS_P1;SDS_P2;PMS_P1;PMS_P2;Temp;Humidity;BMP_temperature;BMP_pressure;BME280_temperature;BME280_humidity;BME280_pressure;Samples;Min_cycle;Max_cycle;Signal;HPM_P1;HPM_P2
2023/03/06 00:00:47;;;;;;;18.88;10.85;;;;;;;0.58;73.28;97592.75;5071451;28;20032;-79
2023/03/06 00:03:13;;;;;;;19.65;11.35;;;;;;;0.57;72.84;97600.06;5089744;28;20050;-79
2023/03/06 00:05:38;;;;;;;21.05;11.00;;;;;;;0.58;73.32;97590.88;5089074;28;20480;-79
2023/03/06 00:08:04;;;;;;;22.52;11.38;;;;;;;0.61;73.33;97594.16;5089685;28;20036;-79
2023/03/06 00:10:30;;;;;;;21.50;10.55;;;;;;;0.62;72.81;97593.88;5081563;28;20028;-79
2023/03/06 00:13:01;;;;;;;22.38;12.45;;;;;;;0.59;73.02;97591.69;5091523;28;20035;-79
2023/03/06 00:15:27;;;;;;;20.75;11.90;;;;;;;0.56;72.59;97597.59;5110195;28;20028;-79
2023/03/06 00:17:54;;;;;;;19.20;11.10;;;;;;;0.53;73.07;97588.13;5076890;28;20456;-79
2023/03/06 00:20:21;;;;;;;18.25;10.50;;;;;;;0.50;72.62;97585.94;5093483;28;20110;-79
2023/03/06 00:22:47;;;;;;;21.33;11.82;;;;;;;0.46;72.78;97584.81;5109610;28;20032;-80
2023/03/06 00:25:16;;;;;;;23.30;13.20;;;;;;;0.42;72.81;97570.97;5107139;28;20030;-80
2023/03/06 00:27:42;;;;;;;70.07;32.92;;;;;;;0.40;73.03;97570.44;5090423;28;20032;-80
2023/03/06 00:30:10;;;;;;;50.50;21.15;;;;;;;0.37;72.98;97575.50;5093029;28;20028;-80
2023/03/06 00:32:35;;;;;;;58.90;21.40;;;;;;;0.35;72.54;97561.47;5090391;28;20078;-80
2023/03/06 00:35:01;;;;;;;60.33;21.08;;;;;;;0.36;72.83;97579.28;5074870;28;20021;-80
2023/03/06 00:37:26;;;;;;;44.20;17.73;;;;;;;0.35;73.04;97578.47;5077014;28;20124;-80
2023/03/06 00:39:52;;;;;;;30.80;14.35;;;;;;;0.32;72.44;97581.66;5096148;28;20056;-80
2023/03/06 00:42:18;;;;;;;26.38;13.75;;;;;;;0.31;73.07;97571.94;5096518;28;20477;-80
2023/03/06 00:44:45;;;;;;;28.70;14.48;;;;;;;0.29;72.93;97579.47;5099526;28;20032;-80
2023/03/06 00:47:10;;;;;;;25.23;13.48;;;;;;;0.28;73.12;97575.16;5092626;28;20032;-80
2023/03/06 00:49:36;;;;;;;26.58;13.75;;;;;;;0.29;73.12;97571.38;5093194;28;20051;-80
2023/03/06 00:52:02;;;;;;;27.88;14.77;;;;;;;0.28;72.88;97573.25;5074909;28;20039;-80
2023/03/06 00:54:27;;;;;;;31.50;15.23;;;;;;;0.28;73.12;97573.25;5088591;28;20140;-80
2023/03/06 00:56:52;;;;;;;35.08;16.05;;;;;;;0.28;72.96;97573.25;5113258;28;20047;-79
2023/03/06 00:59:18;;;;;;;28.25;13.70;;;;;;;0.27;73.12;97566.22;5111989;28;20077;-80
2023/03/06 01:01:43;;;;;;;23.77;13.07;;;;;;;0.26;72.99;97567.28;5089532;28;20495;-79
2023/03/06 01:04:09;;;;;;;26.48;13.05;;;;;;;0.28;73.26;97570.56;5086800;28;20024;-80
2023/03/06 01:06:34;;;;;;;25.35;13.40;;;;;;;0.29;73.04;97566.00;5088207;28;20468;-79
2023/03/06 01:09:00;;;;;;;25.27;13.18;;;;;;;0.29;73.42;97571.38;5084058;28;20028;-79
2023/03/06 01:11:25;;;;;;;26.73;13.65;;;;;;;0.31;73.03;97565.72;5080115;28;20049;-80
2023/03/06 01:13:51;;;;;;;24.20;12.90;;;;;;;0.29;73.07;97568.69;5085494;28;20028;-79
2023/03/06 01:16:17;;;;;;;26.77;14.13;;;;;;;0.25;73.01;97568.34;5064770;28;20024;-79
2023/03/06 01:18:43;;;;;;;28.40;13.52;;;;;;;0.24;73.52;97574.81;5085655;28;20036;-84
2023/03/06 01:21:09;;;;;;;24.95;13.07;;;;;;;0.21;73.03;97574.50;5093931;28;20032;-84
2023/03/06 01:23:34;;;;;;;22.77;13.75;;;;;;;0.20;73.06;97565.63;5093804;28;20035;-83
2023/03/06 01:26:00;;;;;;;24.77;13.70;;;;;;;0.19;73.14;97566.69;5112379;28;20032;-84
2023/03/06 01:28:26;;;;;;;24.67;13.80;;;;;;;0.19;73.37;97571.25;5112503;28;20487;-84
2023/03/06 01:30:52;;;;;;;22.98;12.43;;;;;;;0.15;73.19;97557.47;5104403;28;20051;-85
2023/03/06 01:33:17;;;;;;;23.17;13.55;;;;;;;0.09;73.39;97548.47;5092197;28;20055;-84
2023/03/06 01:35:43;;;;;;;23.50;12.52;;;;;;;0.07;73.02;97544.41;5091805;28;20028;-85
2023/03/06 01:38:09;;;;;;;26.05;14.07;;;;;;;0.05;73.45;97547.34;5111558;28;20069;-85
2023/03/06 01:40:36;;;;;;;25.98;12.88;;;;;;;0.06;73.43;97548.97;5112046;28;20053;-84
2023/03/06 01:43:29;;;;;;;23.40;13.48;;;;;;;0.08;73.37;97537.97;5093905;28;20077;-84
2023/03/06 01:46:16;;;;;;;22.48;12.25;;;;;;;0.10;73.55;97543.91;5107773;28;20044;-84
2023/03/06 01:48:43;;;;;;;26.02;13.73;;;;;;;0.14;73.14;97526.97;5111676;28;20176;-85
2023/03/06 01:51:09;;;;;;;24.30;13.10;;;;;;;0.16;73.61;97532.13;5112000;28;20023;-84
2023/03/06 01:53:36;;;;;;;23.50;13.07;;;;;;;0.17;73.51;97525.69;5111884;28;20158;-84
2023/03/06 01:56:01;;;;;;;27.17;13.23;;;;;;;0.20;73.25;97529.75;5111414;28;20041;-84
2023/03/06 01:58:27;;;;;;;24.17;12.57;;;;;;;0.25;73.23;97536.00;5112065;28;20023;-85
2023/03/06 02:00:53;;;;;;;23.40;12.75;;;;;;;0.26;73.12;97534.94;5111856;28;20063;-84
2023/03/06 02:03:21;;;;;;;24.73;12.88;;;;;;;0.27;73.21;97536.56;5111940;28;20399;-85
2023/03/06 02:05:47;;;;;;;24.60;12.68;;;;;;;0.28;72.81;97529.28;5086113;28;20500;-84
2023/03/06 02:08:16;;;;;;;24.90;13.63;;;;;;;0.31;73.15;97528.78;5101240;28;20036;-85
2023/03/06 02:11:07;;;;;;;26.65;13.90;;;;;;;0.27;73.38;97527.66;5095407;28;20553;-84
2023/03/06 02:13:35;;;;;;;25.48;12.90;;;;;;;0.32;72.83;97532.28;5077378;28;20072;-84
2023/03/06 02:16:00;;;;;;;25.75;13.15;;;;;;;0.33;72.91;97531.22;5096979;28;20438;-84
2023/03/06 02:18:27;;;;;;;24.13;13.38;;;;;;;0.33;73.28;97520.44;5089427;28;20024;-84
2023/03/06 02:20:56;;;;;;;24.10;13.20;;;;;;;0.33;72.97;97529.34;5091308;28;20480;-84
2023/03/06 02:23:35;;;;;;;20.40;12.00;;;;;;;0.33;73.22;97521.25;5091001;28;20024;-85
2023/03/06 02:26:00;;;;;;;22.77;12.63;;;;;;;0.33;72.91;97533.91;5097621;28;20506;-85
2023/03/06 02:28:26;;;;;;;24.02;12.85;;;;;;;0.31;72.76;97533.34;5111161;28;20031;-85
2023/03/06 02:30:53;;;;;;;23.23;12.73;;;;;;;0.32;73.29;97529.59;5111364;28;20099;-85
2023/03/06 02:33:25;;;;;;;22.45;12.73;;;;;;;0.33;73.08;97526.66;5111236;28;20360;-85
2023/03/06 02:35:56;;;;;;;21.35;11.07;;;;;;;0.34;73.19;97530.16;5111184;28;20038;-85
2023/03/06 02:38:26;;;;;;;19.75;10.43;;;;;;;0.34;73.07;97528.28;5110559;28;20028;-84
2023/03/06 02:40:52;;;;;;;18.90;11.07;;;;;;;0.33;73.03;97520.44;5092644;28;20555;-85
2023/03/06 02:43:24;;;;;;;18.73;10.00;;;;;;;0.30;72.80;97521.78;5111033;28;20119;-85
2023/03/06 02:45:50;;;;;;;18.70;9.80;;;;;;;0.26;72.53;97517.94;5091858;28;20429;-85
2023/03/06 02:48:18;;;;;;;18.42;9.88;;;;;;;0.26;72.81;97523.34;5111209;28;20028;-85
2023/03/06 02:50:45;;;;;;;17.17;9.50;;;;;;;0.24;72.76;97523.56;5111615;28;20696;-86
2023/03/06 02:53:12;;;;;;;15.20;8.93;;;;;;;0.24;73.05;97518.19;5101609;28;20388;-86
2023/03/06 02:55:38;;;;;;;18.90;10.05;;;;;;;0.24;72.61;97526.28;5090601;28;20032;-86
2023/03/06 02:58:04;;;;;;;21.75;9.90;;;;;;;0.21;72.80;97517.88;5090191;28;20034;-85
2023/03/06 03:00:30;;;;;;;19.08;9.10;;;;;;;0.19;72.47;97523.53;5091126;28;20028;-86
2023/03/06 03:02:56;;;;;;;17.08;10.30;;;;;;;0.19;72.86;97525.41;5090887;28;20035;-85
2023/03/06 03:05:22;;;;;;;19.35;12.43;;;;;;;0.13;72.53;97519.16;5090491;28;20028;-86
2023/03/06 03:07:47;;;;;;;20.23;12.10;;;;;;;0.07;72.53;97520.94;5089525;28;20020;-86
2023/03/06 03:10:13;;;;;;;16.88;9.20;;;;;;;0.02;72.77;97525.47;5104205;28;20369;-85
2023/03/06 03:12:38;;;;;;;16.08;9.40;;;;;;;-0.01;72.54;97518.72;5110995;28;20028;-86
2023/03/06 03:15:05;;;;;;;18.17;8.20;;;;;;;-0.06;72.89;97515.97;5092936;28;20054;-86
2023/03/06 03:17:30;;;;;;;14.52;9.30;;;;;;;-0.10;72.49;97518.31;5110869;28;20051;-86
2023/03/06 03:19:55;;;;;;;14.43;8.77;;;;;;;-0.13;72.47;97523.41;5110782;28;20452;-86
2023/03/06 03:22:21;;;;;;;15.75;9.48;;;;;;;-0.17;72.37;97517.69;5111122;28;20530;-86
2023/03/06 03:24:46;;;;;;;16.55;9.65;;;;;;;-0.22;72.04;97513.06;5092242;28;20031;-86
2023/03/06 03:27:13;;;;;;;18.20;10.23;;;;;;;-0.27;72.30;97510.28;5103615;28;20035;-85
2023/03/06 03:29:38;;;;;;;17.80;9.75;;;;;;;-0.32;72.43;97500.25;5109946;28;20035;-85
2023/03/06 03:32:04;;;;;;;15.85;10.25;;;;;;;-0.34;72.14;97505.09;5090819;28;20362;-85
2023/03/06 03:34:30;;;;;;;16.00;9.55;;;;;;;-0.38;71.85;97492.34;5086924;28;20020;-86
2023/03/06 03:36:55;;;;;;;20.13;11.45;;;;;;;-0.38;72.13;97495.88;5090053;28;20035;-86
2023/03/06 03:39:21;;;;;;;20.73;10.90;;;;;;;-0.40;72.42;97486.38;5109634;28;20039;-86
2023/03/06 03:41:46;;;;;;;21.25;11.20;;;;;;;-0.42;72.28;97489.34;5110459;28;20040;-86
2023/03/06 03:44:12;;;;;;;18.35;10.80;;;;;;;-0.42;72.45;97491.25;5107310;28;20391;-86
2023/03/06 03:46:38;;;;;;;18.98;11.15;;;;;;;-0.41;72.54;97482.09;5112108;28;20051;-86
2023/03/06 03:49:03;;;;;;;23.35;12.82;;;;;;;-0.40;72.27;97487.22;5093366;28;20031;-86
2023/03/06 03:51:29;;;;;;;20.38;10.77;;;;;;;-0.40;72.48;97481.84;5105454;28;20027;-86
2023/03/06 03:53:56;;;;;;;20.38;11.32;;;;;;;-0.38;72.28;97482.41;5110011;28;20086;-86
2023/03/06 03:56:25;;;;;;;17.88;10.45;;;;;;;-0.37;72.40;97491.28;5109624;28;20031;-86
2023/03/06 03:58:51;;;;;;;19.70;10.70;;;;;;;-0.37;72.46;97489.41;5100917;28;20028;-86
2023/03/06 04:01:17;;;;;;;20.10;11.95;;;;;;;-0.36;72.04;97480.28;5090114;28;20031;-87
2023/03/06 04:03:42;;;;;;;23.38;11.88;;;;;;;-0.37;72.23;97489.41;5094601;28;20051;-87
2023/03/06 04:06:08;;;;;;;38.65;15.25;;;;;;;-0.36;72.48;97482.13;5109103;28;20047;-86
2023/03/06 04:08:34;;;;;;;40.30;17.17;;;;;;;-0.33;72.24;97478.94;5111885;28;20065;-86
2023/03/06 04:10:59;;;;;;;44.28;20.23;;;;;;;-0.34;72.25;97472.75;5097152;28;20036;-87
2023/03/06 04:13:25;;;;;;;45.78;19.65;;;;;;;-0.32;72.63;97459.03;5095912;28;20040;-88
2023/03/06 04:15:52;;;;;;;35.03;17.08;;;;;;;-0.34;72.37;97453.91;5109209;28;20499;-88
2023/03/06 04:18:19;;;;;;;36.33;17.90;;;;;;;-0.34;72.00;97453.91;5108783;28;20068;-88
2023/03/06 04:20:46;;;;;;;43.88;21.05;;;;;;;-0.31;72.53;97458.78;5103302;28;20020;-88
2023/03/06 04:23:12;;;;;;;45.80;22.77;;;;;;;-0.28;72.65;97454.75;5094942;28;20472;-88
2023/03/06 04:25:38;;;;;;;48.72;23.95;;;;;;;-0.26;72.81;97454.53;5067307;28;20122;-87
2023/03/06 04:28:03;;;;;;;52.47;26.75;;;;;;;-0.24;72.23;97449.72;5108656;28;20479;-86
2023/03/06 04:30:29;;;;;;;54.10;26.80;;;;;;;-0.21;72.75;97457.28;5103147;28;20035;-87
2023/03/06 04:32:54;;;;;;;56.22;26.17;;;;;;;-0.20;72.38;97445.41;5081814;28;20460;-87
2023/03/06 04:35:20;;;;;;;49.10;24.70;;;;;;;-0.19;72.73;97447.88;5110239;28;20463;-86
2023/03/06 04:37:45;;;;;;;45.90;23.35;;;;;;;-0.21;72.27;97452.69;5075679;28;20031;-87
2023/03/06 04:40:18;;;;;;;47.08;21.80;;;;;;;-0.20;72.67;97448.09;5112216;28;20048;-86
2023/03/06 04:42:44;;;;;;;41.08;20.15;;;;;;;-0.17;72.52;97440.34;5111968;28;20028;-87
2023/03/06 04:45:10;;;;;;;38.63;21.20;;;;;;;-0.18;72.51;97448.69;5095851;28;20034;-87
2023/03/06 04:47:35;;;;;;;38.83;19.77;;;;;;;-0.16;72.46;97441.16;5105698;28;20062;-87
2023/03/06 04:50:01;;;;;;;37.38;18.02;;;;;;;-0.13;72.64;97439.84;5093448;28;20147;-87
2023/03/06 04:52:26;;;;;;;36.95;17.55;;;;;;;-0.11;72.57;97443.13;5092702;28;20032;-87
2023/03/06 04:54:52;;;;;;;34.08;17.85;;;;;;;-0.11;72.82;97435.81;5092997;28;20044;-86
2023/03/06 04:57:17;;;;;;;35.40;20.70;;;;;;;-0.11;72.35;97433.13;5101959;28;20480;-86
2023/03/06 04:59:42;;;;;;;32.13;18.58;;;;;;;-0.10;72.47;97425.88;5109775;28;20384;-87
2023/03/06 05:02:08;;;;;;;29.85;17.38;;;;;;;-0.07;73.00;97425.38;5101750;28;20459;-87
2023/03/06 05:04:33;;;;;;;31.00;18.27;;;;;;;-0.07;73.11;97422.69;5113340;28;20023;-86
2023/03/06 05:06:59;;;;;;;30.90;17.70;;;;;;;-0.05;72.59;97428.63;5111951;28;20092;-85
2023/03/06 05:09:24;;;;;;;33.03;18.48;;;;;;;-0.05;72.54;97423.25;5108827;28;20028;-86
2023/03/06 05:11:49;;;;;;;30.83;17.30;;;;;;;-0.04;72.63;97422.19;5074237;28;20036;-86
2023/03/06 05:14:15;;;;;;;30.92;18.13;;;;;;;-0.04;72.63;97419.47;5098941;28;20055;-86
2023/03/06 05:16:40;;;;;;;32.88;17.42;;;;;;;-0.05;72.93;97423.25;5110220;28;20102;-86
2023/03/06 05:19:05;;;;;;;31.45;16.92;;;;;;;-0.05;73.09;97417.84;5105955;28;20028;-87
2023/03/06 05:21:31;;;;;;;32.40;17.30;;;;;;;-0.07;72.83;97417.28;5111963;28;20053;-87
2023/03/06 05:23:56;;;;;;;35.45;17.73;;;;;;;-0.11;72.75;97410.78;5112563;28;20077;-87
2023/03/06 05:26:21;;;;;;;33.33;17.85;;;;;;;-0.12;72.90;97419.91;5112369;28;20034;-87
2023/03/06 05:28:47;;;;;;;35.08;18.27;;;;;;;-0.12;72.78;97412.63;5110943;28;20038;-87
2023/03/06 05:31:12;;;;;;;39.05;20.27;;;;;;;-0.11;73.02;97416.97;5094179;28;20031;-87
2023/03/06 05:33:38;;;;;;;38.00;21.80;;;;;;;-0.11;72.80;97416.97;5088366;28;20030;-87
2023/03/06 05:36:03;;;;;;;35.80;18.83;;;;;;;-0.11;72.82;97414.25;5110936;28;20052;-88
2023/03/06 05:38:29;;;;;;;29.63;15.65;;;;;;;-0.11;72.72;97422.34;5110301;28;20028;-87
2023/03/06 05:40:54;;;;;;;30.98;16.13;;;;;;;-0.16;73.03;97419.59;5104462;28;20079;-88
2023/03/06 05:43:21;;;;;;;25.58;14.25;;;;;;;-0.16;73.23;97422.28;5091868;28;20024;-88
2023/03/06 05:45:49;;;;;;;29.50;15.38;;;;;;;-0.18;73.09;97419.84;5095950;28;20024;-87
2023/03/06 05:48:14;;;;;;;40.17;20.55;;;;;;;-0.19;73.19;97418.22;5105520;28;20552;-88
2023/03/06 05:50:39;;;;;;;46.20;21.60;;;;;;;-0.17;73.18;97420.66;5108376;28;20024;-88
2023/03/06 05:53:05;;;;;;;43.50;19.83;;;;;;;-0.17;73.08;97410.72;5094023;28;20582;-86
2023/03/06 05:55:30;;;;;;;44.88;21.33;;;;;;;-0.16;73.37;97415.03;5112167;28;20024;-88
2023/03/06 05:57:56;;;;;;;42.00;21.25;;;;;;;-0.16;73.28;97417.72;5104536;28;20119;-88
2023/03/06 06:00:21;;;;;;;34.25;18.33;;;;;;;-0.13;72.75;97421.00;5091815;28;20035;-87
2023/03/06 06:02:47;;;;;;;36.70;18.67;;;;;;;-0.09;72.94;97425.59;5091824;28;20099;-87
2023/03/06 06:05:13;;;;;;;48.80;23.83;;;;;;;-0.05;73.05;97425.94;5096404;28;20094;-87
2023/03/06 06:07:38;;;;;;;32.63;16.83;;;;;;;-0.02;73.73;97426.22;5111260;28;20028;-87
2023/03/06 06:10:05;;;;;;;37.63;17.15;;;;;;;-0.02;72.89;97426.22;5094440;28;20016;-85
2023/03/06 06:12:31;;;;;;;31.52;15.90;;;;;;;0.01;73.65;97424.09;5092087;28;20055;-87
2023/03/06 06:14:56;;;;;;;28.67;15.25;;;;;;;0.03;73.54;97424.66;5098517;28;20076;-86
2023/03/06 06:17:22;;;;;;;28.13;14.70;;;;;;;0.05;73.38;97426.03;5102301;28;20047;-87
2023/03/06 06:19:47;;;;;;;27.75;14.13;;;;;;;0.09;73.12;97426.34;5072744;28;20032;-85
2023/03/06 06:22:13;;;;;;;29.40;15.15;;;;;;;0.14;73.67;97418.31;5091588;28;20354;-86
2023/03/06 06:24:38;;;;;;;25.85;13.60;;;;;;;0.20;73.05;97421.88;5091616;28;20518;-86
2023/03/06 06:27:04;;;;;;;26.77;13.45;;;;;;;0.25;73.10;97425.41;5091232;28;20042;-85
2023/03/06 06:29:30;;;;;;;29.08;14.63;;;;;;;0.28;73.78;97424.91;5093877;28;20040;-85
2023/03/06 06:31:55;;;;;;;25.13;15.10;;;;;;;0.33;73.06;97426.03;5110659;28;20118;-85
2023/03/06 06:34:22;;;;;;;24.67;12.85;;;;;;;0.36;73.41;97422.84;5111789;28;20077;-86
2023/03/06 06:36:48;;;;;;;25.92;13.98;;;;;;;0.41;73.94;97425.59;5111285;28;20027;-86
2023/03/06 06:39:16;;;;;;;24.48;12.02;;;;;;;0.44;73.32;97420.47;5108636;28;20028;-86
2023/03/06 06:41:41;;;;;;;22.83;11.93;;;;;;;0.49;73.49;97418.91;5111128;28;20040;-86
2023/03/06 06:44:10;;;;;;;22.45;12.10;;;;;;;0.53;72.91;97425.41;5111628;28;20031;-85
2023/03/06 06:46:36;;;;;;;20.73;11.40;;;;;;;0.55;73.68;97421.41;5089532;28;20043;-86
2023/03/06 06:49:02;;;;;;;20.02;11.68;;;;;;;0.57;73.24;97431.94;5072136;28;20022;-85
2023/03/06 06:51:31;;;;;;;25.13;12.73;;;;;;;0.57;73.24;97421.97;5090661;28;20031;-86
2023/03/06 06:53:57;;;;;;;20.63;10.88;;;;;;;0.59;73.21;97430.63;5090502;28;20024;-84
2023/03/06 06:56:23;;;;;;;21.23;12.45;;;;;;;0.61;73.02;97433.03;5076071;28;20443;-86
2023/03/06 06:58:51;;;;;;;21.08;10.93;;;;;;;0.67;73.34;97431.19;5109976;28;20039;-86
2023/03/06 07:01:16;;;;;;;18.95;9.85;;;;;;;0.70;72.89;97436.91;5099556;28;20028;-85
2023/03/06 07:03:42;;;;;;;20.35;9.70;;;;;;;0.77;73.06;97444.78;5096377;28;20072;-86
2023/03/06 07:06:07;;;;;;;19.30;10.35;;;;;;;0.82;73.33;97436.72;5096184;28;20464;-84
2023/03/06 07:08:33;;;;;;;20.33;9.60;;;;;;;0.88;73.13;97438.41;5092662;28;20112;-84
2023/03/06 07:11:04;;;;;;;16.60;9.15;;;;;;;0.94;73.41;97443.84;5104312;28;20028;-86
2023/03/06 07:13:29;;;;;;;18.80;10.10;;;;;;;0.97;73.00;97441.41;5111388;28;20050;-84
2023/03/06 07:15:55;;;;;;;18.60;8.98;;;;;;;0.99;72.86;97443.88;5089575;28;20035;-85
2023/03/06 07:18:20;;;;;;;17.73;8.63;;;;;;;0.99;72.78;97433.88;5105045;28;20110;-86
2023/03/06 07:20:45;;;;;;;26.08;17.30;;;;;;;1.03;72.47;97439.56;5111225;28;20042;-87
2023/03/06 07:23:12;;;;;;;27.10;15.13;;;;;;;1.07;72.58;97443.38;5111440;28;20506;-87
2023/03/06 07:25:38;;;;;;;17.98;10.30;;;;;;;1.13;72.07;97444.25;5106397;28;20032;-87
2023/03/06 07:28:03;;;;;;;17.45;10.15;;;;;;;1.19;73.15;97452.09;5107751;28;20073;-86
2023/03/06 07:30:29;;;;;;;18.52;10.13;;;;;;;1.24;72.75;97437.81;5102073;28;20024;-87
2023/03/06 07:32:56;;;;;;;20.75;9.95;;;;;;;1.29;72.63;97445.94;5090015;28;20050;-87
2023/03/06 07:35:22;;;;;;;18.13;10.05;;;;;;;1.33;72.66;97443.56;5094616;28;20024;-80
2023/03/06 07:37:47;;;;;;;18.10;9.23;;;;;;;1.41;72.48;97447.66;5108876;28;20103;-85
2023/03/06 07:40:13;;;;;;;18.02;9.18;;;;;;;1.47;72.13;97447.41;5090389;28;20095;-87
2023/03/06 07:42:41;;;;;;;17.30;9.48;;;;;;;1.54;72.41;97443.66;5092768;28;20031;-85
2023/03/06 07:45:07;;;;;;;15.02;7.65;;;;;;;1.60;71.77;97448.84;5091750;28;20030;-80
2023/03/06 07:47:33;;;;;;;16.95;8.20;;;;;;;1.64;71.73;97444.50;5092347;28;20016;-84
2023/03/06 07:50:02;;;;;;;14.32;9.07;;;;;;;1.74;72.01;97453.75;5091253;28;20388;-82
2023/03/06 07:52:27;;;;;;;19.23;11.75;;;;;;;1.76;71.99;97457.00;5057122;28;20865;-83
2023/03/06 07:54:53;;;;;;;15.68;9.32;;;;;;;1.78;71.32;97447.56;5096631;28;20027;-83
2023/03/06 07:57:19;;;;;;;19.92;11.93;;;;;;;1.82;71.21;97449.75;5076940;28;20027;-82
2023/03/06 07:59:44;;;;;;;18.23;9.90;;;;;;;1.86;71.73;97454.34;5087638;28;20017;-81
2023/03/06 08:02:11;;;;;;;21.30;11.40;;;;;;;1.86;71.67;97454.34;5088471;28;20016;-78
2023/03/06 08:04:36;;;;;;;18.77;9.48;;;;;;;1.92;70.98;97449.78;5092543;28;20055;-78
2023/03/06 08:07:03;;;;;;;25.40;13.15;;;;;;;1.96;71.63;97453.56;5089452;28;20538;-78
2023/03/06 08:09:29;;;;;;;21.80;11.98;;;;;;;2.00;70.47;97451.97;5064948;28;20070;-77
2023/03/06 08:11:55;;;;;;;19.90;10.48;;;;;;;2.05;70.55;97446.59;5086560;28;20063;-74
2023/03/06 08:14:21;;;;;;;18.23;10.38;;;;;;;2.12;71.46;97440.91;5087602;28;20023;-77
2023/03/06 08:16:47;;;;;;;24.20;10.40;;;;;;;2.19;70.74;97444.19;5067878;28;20778;-79
2023/03/06 08:19:14;;;;;;;22.75;10.68;;;;;;;2.26;70.79;97438.50;5083808;28;20388;-78
2023/03/06 08:21:39;;;;;;;28.05;12.75;;;;;;;2.31;70.59;97440.44;5067599;28;20020;-79
2023/03/06 08:24:05;;;;;;;23.90;10.68;;;;;;;2.37;70.35;97442.88;5084215;28;20035;-79
2023/03/06 08:26:31;;;;;;;21.27;11.55;;;;;;;2.45;70.68;97436.09;5079238;28;20599;-79
2023/03/06 08:28:59;;;;;;;17.70;9.63;;;;;;;2.55;71.03;97437.22;5081277;28;20029;-80
2023/03/06 08:31:44;;;;;;;19.33;9.57;;;;;;;2.66;70.64;97441.56;5087826;28;20032;-79
2023/03/06 08:34:19;;;;;;;19.60;10.95;;;;;;;2.77;70.26;97443.19;5071600;28;20414;-80
2023/03/06 08:36:44;;;;;;;16.35;8.90;;;;;;;2.88;70.07;97435.88;5088352;28;20024;-78
2023/03/06 08:39:10;;;;;;;24.38;13.50;;;;;;;2.93;69.53;97441.31;5088448;28;20035;-79
2023/03/06 08:41:36;;;;;;;24.98;13.13;;;;;;;2.97;69.39;97447.81;5088396;28;21193;-78
2023/03/06 08:44:03;;;;;;;24.73;13.23;;;;;;;3.02;69.88;97441.56;5087652;28;20069;-77
2023/03/06 08:46:32;;;;;;;18.75;10.35;;;;;;;3.11;69.37;97448.06;5091707;28;20368;-81
2023/03/06 08:48:58;;;;;;;18.17;10.13;;;;;;;3.16;69.23;97446.44;5091990;28;20017;-77
2023/03/06 08:51:24;;;;;;;21.85;11.32;;;;;;;3.16;68.79;97449.13;5093551;28;20032;-77
2023/03/06 08:53:50;;;;;;;34.90;18.77;;;;;;;3.19;68.58;97448.59;5091677;28;20111;-79
2023/03/06 08:56:17;;;;;;;23.77;11.90;;;;;;;3.26;68.53;97447.22;5107164;28;20031;-76
2023/03/06 08:58:43;;;;;;;19.90;10.88;;;;;;;3.31;68.28;97451.00;5086026;28;20031;-76
2023/03/06 09:01:19;;;;;;;17.02;9.27;;;;;;;3.32;68.99;97449.94;5086615;28;20020;-76
2023/03/06 09:03:45;;;;;;;21.20;10.82;;;;;;;3.33;67.62;97454.25;5091146;28;20119;-79
2023/03/06 09:06:11;;;;;;;17.27;8.85;;;;;;;3.32;67.71;97452.63;5091440;28;20479;-78
2023/03/06 09:08:37;;;;;;;15.15;7.45;;;;;;;3.36;68.12;97453.72;5112269;28;20023;-79
2023/03/06 09:11:03;;;;;;;15.57;7.68;;;;;;;3.39;67.79;97453.97;5091373;28;20024;-84
2023/03/06 09:13:28;;;;;;;15.45;7.85;;;;;;;3.40;67.05;97457.50;5102774;28;20111;-71
2023/03/06 09:15:53;;;;;;;13.85;7.28;;;;;;;3.39;67.00;97443.13;5103399;28;20119;-78
2023/03/06 09:18:19;;;;;;;13.35;7.05;;;;;;;3.43;66.69;97448.84;5089473;28;20025;-79
2023/03/06 09:20:44;;;;;;;15.23;9.80;;;;;;;3.49;66.55;97436.88;5091507;28;20529;-80
2023/03/06 09:23:09;;;;;;;12.25;8.00;;;;;;;3.57;66.95;97446.34;5086276;28;20020;-79
2023/03/06 09:25:35;;;;;;;12.65;7.28;;;;;;;3.63;65.72;97445.25;5082874;28;20476;-79
2023/03/06 09:28:01;;;;;;;16.17;7.70;;;;;;;3.67;66.26;97440.88;5092062;28;20059;-79
2023/03/06 09:30:26;;;;;;;17.08;8.63;;;;;;;3.75;67.17;97438.69;5084280;28;20062;-79
2023/03/06 09:32:51;;;;;;;17.95;8.23;;;;;;;3.85;66.78;97431.34;5077917;28;20035;-80
2023/03/06 09:35:17;;;;;;;28.23;11.48;;;;;;;3.94;66.78;97436.16;5083295;28;20020;-79
2023/03/06 09:37:43;;;;;;;27.33;12.13;;;;;;;3.97;66.17;97431.03;5076267;28;20113;-79
2023/03/06 09:40:24;;;;;;;17.10;9.20;;;;;;;4.00;66.34;97433.19;5091127;28;21269;-79
2023/03/06 09:42:49;;;;;;;17.17;8.40;;;;;;;4.06;65.66;97433.94;5086804;28;20055;-78
2023/03/06 09:45:16;;;;;;;15.10;9.20;;;;;;;4.10;65.87;97439.63;5100989;28;20051;-80
2023/03/06 09:47:47;;;;;;;13.07;8.05;;;;;;;4.16;65.86;97438.50;5094473;28;20087;-82
2023/03/06 09:50:19;;;;;;;15.77;8.20;;;;;;;4.28;66.38;97425.41;5089888;28;20484;-78
2023/03/06 09:53:18;;;;;;;14.15;9.13;;;;;;;4.39;66.05;97428.88;5086523;28;20055;-78
2023/03/06 09:55:50;;;;;;;12.80;7.87;;;;;;;4.52;65.41;97424.72;5080734;28;20110;-78
2023/03/06 09:58:27;;;;;;;10.80;6.32;;;;;;;4.57;65.11;97427.41;5089174;28;20365;-78
2023/03/06 10:00:56;;;;;;;10.98;6.72;;;;;;;4.62;64.35;97429.28;5086775;28;20028;-79
2023/03/06 10:03:24;;;;;;;9.60;6.57;;;;;;;4.61;65.29;97417.59;5081834;28;20077;-79
2023/03/06 10:05:58;;;;;;;11.75;7.50;;;;;;;4.67;64.05;97415.69;5076979;28;20035;-79
2023/03/06 10:08:36;;;;;;;11.50;7.00;;;;;;;4.79;65.11;97418.03;5087836;28;20077;-81
2023/03/06 10:11:07;;;;;;;12.13;7.88;;;;;;;4.91;64.92;97410.28;5093961;28;20030;-78
2023/03/06 10:13:44;;;;;;;13.55;7.55;;;;;;;5.03;64.68;97409.94;5090178;28;20472;-79
2023/03/06 10:16:24;;;;;;;16.17;9.20;;;;;;;5.12;64.83;97406.56;5083020;28;20044;-80
2023/03/06 10:18:49;;;;;;;13.10;7.32;;;;;;;5.21;64.44;97397.53;5086266;28;20093;-78
2023/03/06 10:21:28;;;;;;;13.30;7.15;;;;;;;5.27;64.65;97401.00;5094631;28;20043;-78
2023/03/06 10:24:07;;;;;;;13.02;8.43;;;;;;;5.32;64.26;97395.50;5089721;28;20024;-78
2023/03/06 10:26:58;;;;;;;12.85;7.70;;;;;;;5.40;64.38;97391.34;5089292;28;20035;-79
2023/03/06 10:29:35;;;;;;;10.90;6.72;;;;;;;5.45;63.29;97385.06;5068155;28;20047;-78
2023/03/06 10:32:18;;;;;;;12.25;7.80;;;;;;;5.46;62.78;97392.13;5083057;28;20384;-78
2023/03/06 10:34:44;;;;;;;11.18;6.95;;;;;;;5.47;62.51;97393.75;5086275;28;20031;-79
2023/03/06 10:37:20;;;;;;;11.77;7.45;;;;;;;5.45;62.37;97394.00;5081294;28;20036;-78
2023/03/06 10:39:47;;;;;;;12.48;7.30;;;;;;;5.41;62.44;97395.69;5083869;28;20057;-78
2023/03/06 10:42:12;;;;;;;9.95;6.47;;;;;;;5.40;62.10;97388.63;5084084;28;20020;-78
2023/03/06 10:44:38;;;;;;;10.20;5.80;;;;;;;5.38;60.96;97387.31;5084601;28;20039;-77
2023/03/06 10:47:40;;;;;;;9.65;6.63;;;;;;;5.36;61.71;97385.69;5081441;28;20020;-77
2023/03/06 10:50:22;;;;;;;11.77;5.63;;;;;;;5.43;62.31;97387.25;5026927;28;20033;-79
2023/03/06 10:53:03;;;;;;;11.25;7.07;;;;;;;5.47;60.38;97382.88;5071443;28;20044;-79
2023/03/06 10:55:32;;;;;;;11.68;6.38;;;;;;;5.49;61.60;97373.31;5096171;28;20039;-79
2023/03/06 10:58:17;;;;;;;8.45;5.32;;;;;;;5.55;59.91;97373.25;5099853;28;20494;-79
2023/03/06 11:00:43;;;;;;;9.25;5.32;;;;;;;5.57;61.38;97355.53;5090105;28;20046;-78
2023/03/06 11:03:22;;;;;;;15.32;9.30;;;;;;;5.60;61.44;97365.03;5081902;28;20111;-79
2023/03/06 11:06:00;;;;;;;12.85;7.30;;;;;;;5.71;61.84;97349.38;5073488;28;20124;-79
2023/03/06 11:08:25;;;;;;;10.30;6.07;;;;;;;5.84;59.72;97356.84;5109342;28;20030;-79
2023/03/06 11:11:20;;;;;;;11.10;5.78;;;;;;;5.87;59.66;97348.09;5092198;28;20028;-79
2023/03/06 11:13:56;;;;;;;8.68;4.88;;;;;;;5.92;59.95;97347.22;5079520;28;20058;-79
2023/03/06 11:16:23;;;;;;;6.60;4.55;;;;;;;5.94;58.55;97351.25;5081710;28;20038;-79
2023/03/06 11:19:01;;;;;;;7.70;3.75;;;;;;;5.95;58.15;97344.69;5095531;28;20032;-82
2023/03/06 11:21:30;;;;;;;6.28;4.22;;;;;;;5.97;57.67;97337.03;5075203;28;20440;-81
2023/03/06 11:24:02;;;;;;;6.40;3.88;;;;;;;6.01;58.72;97336.50;5095207;28;20029;-82
2023/03/06 11:27:00;;;;;;;6.63;3.95;;;;;;;6.04;58.05;97322.28;5088796;28;20049;-81
2023/03/06 11:29:42;;;;;;;7.25;3.95;;;;;;;5.99;57.26;97316.88;5090660;28;20028;-79